sensor_id;sensor_type;location;lat;lon;timestamp;temperature;humidity
11991;DHT22;6055;52.522;13.446;2022-11-03T00:01:01;8.80;99.90
11991;DHT22;6055;52.522;13.446;2022-11-03T00:03:27;8.80;99.90
11991;DHT22;6055;52.522;13.446;2022-11-03T00:05:52;8.80;99.90
11991;DHT22;6055;52.522;13.446;2022-11-03T00:08:38;8.80;99.90
11991;DHT22;6055;52.522;13.446;2022-11-03T00:11:06;8.80;99.90
11991;DHT22;6055;52.522;13.446;2022-11-03T00:13:33;8.80;99.90
11991;DHT22;6055;52.522;13.446;2022-11-03T00:15:58;8.70;99.90
11991;DHT22;6055;52.522;13.446;2022-11-03T00:18:24;8.70;99.90
11991;DHT22;6055;52.522;13.446;2022-11-03T00:21:07;8.70;99.90
11991;DHT22;6055;52.522;13.446;2022-11-03T00:23:38;8.70;99.90
11991;DHT22;6055;52.522;13.446;2022-11-03T00:26:13;8.70;99.90
11991;DHT22;6055;52.522;13.446;2022-11-03T00:28:44;8.60;99.90
11991;DHT22;6055;52.522;13.446;2022-11-03T00:31:15;8.60;99.90
11991;DHT22;6055;52.522;13.446;2022-11-03T00:33:42;8.60;99.90
11991;DHT22;6055;52.522;13.446;2022-11-03T00:36:11;8.60;99.90
11991;DHT22;6055;52.522;13.446;2022-11-03T00:38:37;8.60;99.90
11991;DHT22;6055;52.522;13.446;2022-11-03T00:41:04;8.50;99.90
11991;DHT22;6055;52.522;13.446;2022-11-03T00:43:32;8.50;99.90
11991;DHT22;6055;52.522;13.446;2022-11-03T00:45:58;8.50;99.90
11991;DHT22;6055;52.522;13.446;2022-11-03T00:48:23;8.50;99.90
11991;DHT22;6055;52.522;13.446;2022-11-03T00:51:08;8.40;99.90
11991;DHT22;6055;52.522;13.446;2022-11-03T00:53:46;8.40;99.90
11991;DHT22;6055;52.522;13.446;2022-11-03T00:56:18;8.40;99.90
11991;DHT22;6055;52.522;13.446;2022-11-03T00:58:44;8.40;99.90
11991;DHT22;6055;52.522;13.446;2022-11-03T01:01:16;8.40;99.90
11991;DHT22;6055;52.522;13.446;2022-11-03T01:03:43;8.40;99.90
11991;DHT22;6055;52.522;13.446;2022-11-03T01:06:31;8.40;99.90
11991;DHT22;6055;52.522;13.446;2022-11-03T01:09:36;8.40;99.90
11991;DHT22;6055;52.522;13.446;2022-11-03T01:14:44;8.30;99.90
11991;DHT22;6055;52.522;13.446;2022-11-03T01:17:14;8.30;99.90
11991;DHT22;6055;52.522;13.446;2022-11-03T01:19:40;8.30;99.90
11991;DHT22;6055;52.522;13.446;2022-11-03T01:22:06;8.30;99.90
11991;DHT22;6055;52.522;13.446;2022-11-03T01:24:31;8.30;99.90
11991;DHT22;6055;52.522;13.446;2022-11-03T01:26:58;8.20;99.90
11991;DHT22;6055;52.522;13.446;2022-11-03T01:29:23;8.20;99.90
11991;DHT22;6055;52.522;13.446;2022-11-03T01:31:49;8.20;99.90
11991;DHT22;6055;52.522;13.446;2022-11-03T01:34:17;8.20;99.90
11991;DHT22;6055;52.522;13.446;2022-11-03T01:36:43;8.20;99.90
11991;DHT22;6055;52.522;13.446;2022-11-03T01:39:10;8.20;99.90
11991;DHT22;6055;52.522;13.446;2022-11-03T01:41:36;8.10;99.90
11991;DHT22;6055;52.522;13.446;2022-11-03T01:46:40;8.10;99.90
11991;DHT22;6055;52.522;13.446;2022-11-03T01:49:08;8.10;99.90
11991;DHT22;6055;52.522;13.446;2022-11-03T01:51:35;8.10;99.90
11991;DHT22;6055;52.522;13.446;2022-11-03T01:54:06;8.10;99.90
11991;DHT22;6055;52.522;13.446;2022-11-03T01:56:35;8.00;99.90
11991;DHT22;6055;52.522;13.446;2022-11-03T01:59:02;8.00;99.90
11991;DHT22;6055;52.522;13.446;2022-11-03T02:01:29;8.00;99.90
11991;DHT22;6055;52.522;13.446;2022-11-03T02:03:58;8.00;99.90
11991;DHT22;6055;52.522;13.446;2022-11-03T02:06:27;8.00;99.90
11991;DHT22;6055;52.522;13.446;2022-11-03T02:08:59;7.90;99.90
11991;DHT22;6055;52.522;13.446;2022-11-03T02:11:26;7.90;99.90
11991;DHT22;6055;52.522;13.446;2022-11-03T02:14:13;7.90;99.90
11991;DHT22;6055;52.522;13.446;2022-11-03T02:16:41;7.90;99.90
11991;DHT22;6055;52.522;13.446;2022-11-03T02:19:18;7.90;99.90
11991;DHT22;6055;52.522;13.446;2022-11-03T02:27:33;7.90;99.90
11991;DHT22;6055;52.522;13.446;2022-11-03T02:29:59;7.80;99.90
11991;DHT22;6055;52.522;13.446;2022-11-03T02:32:30;7.80;99.90
11991;DHT22;6055;52.522;13.446;2022-11-03T02:37:58;7.80;99.90
11991;DHT22;6055;52.522;13.446;2022-11-03T02:40:29;7.80;99.90
11991;DHT22;6055;52.522;13.446;2022-11-03T02:42:57;7.80;99.90
11991;DHT22;6055;52.522;13.446;2022-11-03T02:45:24;7.80;99.90
11991;DHT22;6055;52.522;13.446;2022-11-03T02:47:53;7.80;99.90
11991;DHT22;6055;52.522;13.446;2022-11-03T02:50:19;7.80;99.90
11991;DHT22;6055;52.522;13.446;2022-11-03T02:52:47;7.70;99.90
11991;DHT22;6055;52.522;13.446;2022-11-03T02:58:08;7.70;99.90
11991;DHT22;6055;52.522;13.446;2022-11-03T03:00:52;7.70;99.90
11991;DHT22;6055;52.522;13.446;2022-11-03T03:03:39;7.70;99.90
11991;DHT22;6055;52.522;13.446;2022-11-03T03:06:21;7.70;99.90
11991;DHT22;6055;52.522;13.446;2022-11-03T03:08:55;7.70;99.90
11991;DHT22;6055;52.522;13.446;2022-11-03T03:11:22;7.70;99.90
11991;DHT22;6055;52.522;13.446;2022-11-03T03:14:03;7.70;99.90
11991;DHT22;6055;52.522;13.446;2022-11-03T03:16:32;7.70;99.90
11991;DHT22;6055;52.522;13.446;2022-11-03T03:19:28;7.70;99.90
11991;DHT22;6055;52.522;13.446;2022-11-03T03:21:56;7.70;99.90
11991;DHT22;6055;52.522;13.446;2022-11-03T03:24:37;7.70;99.90
11991;DHT22;6055;52.522;13.446;2022-11-03T03:27:05;7.70;99.90
11991;DHT22;6055;52.522;13.446;2022-11-03T03:29:44;7.70;99.90
11991;DHT22;6055;52.522;13.446;2022-11-03T03:32:13;7.70;99.90
11991;DHT22;6055;52.522;13.446;2022-11-03T03:34:42;7.70;99.90
11991;DHT22;6055;52.522;13.446;2022-11-03T03:37:08;7.70;99.90
11991;DHT22;6055;52.522;13.446;2022-11-03T03:39:37;7.70;99.90
11991;DHT22;6055;52.522;13.446;2022-11-03T03:42:04;7.70;99.90
11991;DHT22;6055;52.522;13.446;2022-11-03T03:44:33;7.70;99.90
11991;DHT22;6055;52.522;13.446;2022-11-03T03:47:01;7.70;99.90
11991;DHT22;6055;52.522;13.446;2022-11-03T03:49:28;7.70;99.90
11991;DHT22;6055;52.522;13.446;2022-11-03T03:51:53;7.70;99.90
11991;DHT22;6055;52.522;13.446;2022-11-03T03:54:19;7.70;99.90
11991;DHT22;6055;52.522;13.446;2022-11-03T03:56:54;7.70;99.90
11991;DHT22;6055;52.522;13.446;2022-11-03T03:59:20;7.70;99.90
11991;DHT22;6055;52.522;13.446;2022-11-03T04:01:46;7.70;99.90
11991;DHT22;6055;52.522;13.446;2022-11-03T04:04:11;7.70;99.90
11991;DHT22;6055;52.522;13.446;2022-11-03T04:06:37;7.60;99.90
11991;DHT22;6055;52.522;13.446;2022-11-03T04:09:02;7.60;99.90
11991;DHT22;6055;52.522;13.446;2022-11-03T04:11:28;7.60;99.90
11991;DHT22;6055;52.522;13.446;2022-11-03T04:14:12;7.60;99.90
11991;DHT22;6055;52.522;13.446;2022-11-03T04:16:56;7.50;99.90
11991;DHT22;6055;52.522;13.446;2022-11-03T04:19:40;7.50;99.90
11991;DHT22;6055;52.522;13.446;2022-11-03T04:22:29;7.50;99.90
11991;DHT22;6055;52.522;13.446;2022-11-03T04:24:56;7.50;99.90
11991;DHT22;6055;52.522;13.446;2022-11-03T04:32:30;7.40;99.90
11991;DHT22;6055;52.522;13.446;2022-11-03T04:34:57;7.40;99.90
11991;DHT22;6055;52.522;13.446;2022-11-03T04:37:26;7.40;99.90
11991;DHT22;6055;52.522;13.446;2022-11-03T04:39:51;7.40;99.90
11991;DHT22;6055;52.522;13.446;2022-11-03T04:42:19;7.40;99.90
11991;DHT22;6055;52.522;13.446;2022-11-03T04:44:46;7.30;99.90
11991;DHT22;6055;52.522;13.446;2022-11-03T04:47:13;7.30;99.90
11991;DHT22;6055;52.522;13.446;2022-11-03T04:49:41;7.30;99.90
11991;DHT22;6055;52.522;13.446;2022-11-03T04:52:16;7.30;99.90
11991;DHT22;6055;52.522;13.446;2022-11-03T04:54:43;7.30;99.90
11991;DHT22;6055;52.522;13.446;2022-11-03T04:57:12;7.30;99.90
11991;DHT22;6055;52.522;13.446;2022-11-03T04:59:39;7.30;99.90
11991;DHT22;6055;52.522;13.446;2022-11-03T05:02:12;7.30;99.90
11991;DHT22;6055;52.522;13.446;2022-11-03T05:04:39;7.30;99.90
11991;DHT22;6055;52.522;13.446;2022-11-03T05:07:28;7.20;99.90
11991;DHT22;6055;52.522;13.446;2022-11-03T05:09:54;7.20;99.90
11991;DHT22;6055;52.522;13.446;2022-11-03T05:12:20;7.20;99.90
11991;DHT22;6055;52.522;13.446;2022-11-03T05:14:46;7.20;99.90
11991;DHT22;6055;52.522;13.446;2022-11-03T05:17:20;7.10;99.90
11991;DHT22;6055;52.522;13.446;2022-11-03T05:19:47;7.10;99.90
11991;DHT22;6055;52.522;13.446;2022-11-03T05:22:19;7.10;99.90
11991;DHT22;6055;52.522;13.446;2022-11-03T05:24:45;7.10;99.90
11991;DHT22;6055;52.522;13.446;2022-11-03T05:27:16;7.10;99.90
11991;DHT22;6055;52.522;13.446;2022-11-03T05:29:43;7.10;99.90
11991;DHT22;6055;52.522;13.446;2022-11-03T05:32:12;7.10;99.90
11991;DHT22;6055;52.522;13.446;2022-11-03T05:34:43;7.10;99.90
11991;DHT22;6055;52.522;13.446;2022-11-03T05:37:30;7.10;99.90
11991;DHT22;6055;52.522;13.446;2022-11-03T05:40:40;7.00;99.90
11991;DHT22;6055;52.522;13.446;2022-11-03T05:42:52;7.00;99.90
11991;DHT22;6055;52.522;13.446;2022-11-03T05:45:31;7.00;99.90
11991;DHT22;6055;52.522;13.446;2022-11-03T05:47:57;7.00;99.90
11991;DHT22;6055;52.522;13.446;2022-11-03T05:50:25;7.00;99.90
11991;DHT22;6055;52.522;13.446;2022-11-03T05:52:56;7.00;99.90
11991;DHT22;6055;52.522;13.446;2022-11-03T05:55:26;6.90;99.90
11991;DHT22;6055;52.522;13.446;2022-11-03T05:57:53;6.90;99.90
11991;DHT22;6055;52.522;13.446;2022-11-03T06:00:36;7.00;99.90
11991;DHT22;6055;52.522;13.446;2022-11-03T06:03:02;6.90;99.90
11991;DHT22;6055;52.522;13.446;2022-11-03T06:05:30;6.90;99.90
11991;DHT22;6055;52.522;13.446;2022-11-03T06:08:00;6.90;99.90
11991;DHT22;6055;52.522;13.446;2022-11-03T06:10:30;7.00;99.90
11991;DHT22;6055;52.522;13.446;2022-11-03T06:13:03;7.00;99.90
11991;DHT22;6055;52.522;13.446;2022-11-03T06:15:35;7.00;99.90
11991;DHT22;6055;52.522;13.446;2022-11-03T06:18:33;6.90;99.90
11991;DHT22;6055;52.522;13.446;2022-11-03T06:21:05;7.00;99.90
11991;DHT22;6055;52.522;13.446;2022-11-03T06:23:33;7.00;99.90
11991;DHT22;6055;52.522;13.446;2022-11-03T06:26:00;7.00;99.90
11991;DHT22;6055;52.522;13.446;2022-11-03T06:28:29;7.00;99.90
11991;DHT22;6055;52.522;13.446;2022-11-03T06:30:56;7.00;99.90
11991;DHT22;6055;52.522;13.446;2022-11-03T06:33:25;6.90;99.90
11991;DHT22;6055;52.522;13.446;2022-11-03T06:35:53;6.90;99.90
11991;DHT22;6055;52.522;13.446;2022-11-03T06:38:25;6.90;99.90
11991;DHT22;6055;52.522;13.446;2022-11-03T06:40:51;6.90;99.90
11991;DHT22;6055;52.522;13.446;2022-11-03T06:43:22;6.90;99.90
11991;DHT22;6055;52.522;13.446;2022-11-03T06:46:11;6.90;99.90
11991;DHT22;6055;52.522;13.446;2022-11-03T06:48:38;6.90;99.90
11991;DHT22;6055;52.522;13.446;2022-11-03T06:51:19;6.90;99.90
11991;DHT22;6055;52.522;13.446;2022-11-03T06:53:47;6.90;99.90
11991;DHT22;6055;52.522;13.446;2022-11-03T06:56:15;7.00;99.90
11991;DHT22;6055;52.522;13.446;2022-11-03T06:58:43;7.00;99.90
11991;DHT22;6055;52.522;13.446;2022-11-03T07:01:18;7.00;99.90
11991;DHT22;6055;52.522;13.446;2022-11-03T07:03:44;7.00;99.90
11991;DHT22;6055;52.522;13.446;2022-11-03T07:08:47;7.00;99.90
11991;DHT22;6055;52.522;13.446;2022-11-03T07:11:24;7.10;99.90
11991;DHT22;6055;52.522;13.446;2022-11-03T07:13:57;7.10;99.90
11991;DHT22;6055;52.522;13.446;2022-11-03T07:19:05;7.20;99.90
11991;DHT22;6055;52.522;13.446;2022-11-03T07:21:40;7.20;99.90
11991;DHT22;6055;52.522;13.446;2022-11-03T07:24:21;7.30;99.90
11991;DHT22;6055;52.522;13.446;2022-11-03T07:26:53;7.30;99.90
11991;DHT22;6055;52.522;13.446;2022-11-03T07:29:23;7.40;99.90
11991;DHT22;6055;52.522;13.446;2022-11-03T07:31:53;7.40;99.90
11991;DHT22;6055;52.522;13.446;2022-11-03T07:34:21;7.50;99.90
11991;DHT22;6055;52.522;13.446;2022-11-03T07:36:48;7.60;99.90
11991;DHT22;6055;52.522;13.446;2022-11-03T07:39:17;7.70;99.90
11991;DHT22;6055;52.522;13.446;2022-11-03T07:41:43;7.70;99.90
11991;DHT22;6055;52.522;13.446;2022-11-03T07:44:15;7.80;99.90
11991;DHT22;6055;52.522;13.446;2022-11-03T07:46:45;7.90;99.90
11991;DHT22;6055;52.522;13.446;2022-11-03T07:49:28;8.00;99.90
11991;DHT22;6055;52.522;13.446;2022-11-03T07:51:55;8.00;99.90
11991;DHT22;6055;52.522;13.446;2022-11-03T07:54:24;8.00;99.90
11991;DHT22;6055;52.522;13.446;2022-11-03T07:57:03;8.10;99.90
11991;DHT22;6055;52.522;13.446;2022-11-03T07:59:32;8.10;99.90
11991;DHT22;6055;52.522;13.446;2022-11-03T08:01:58;8.20;99.90
11991;DHT22;6055;52.522;13.446;2022-11-03T08:04:27;8.30;99.90
11991;DHT22;6055;52.522;13.446;2022-11-03T08:06:53;8.30;99.90
11991;DHT22;6055;52.522;13.446;2022-11-03T08:09:19;8.30;99.90
11991;DHT22;6055;52.522;13.446;2022-11-03T08:11:45;8.40;99.90
11991;DHT22;6055;52.522;13.446;2022-11-03T08:14:12;8.40;99.90
11991;DHT22;6055;52.522;13.446;2022-11-03T08:16:38;8.50;99.90
11991;DHT22;6055;52.522;13.446;2022-11-03T08:19:05;8.50;99.90
11991;DHT22;6055;52.522;13.446;2022-11-03T08:21:31;8.50;99.90
11991;DHT22;6055;52.522;13.446;2022-11-03T08:23:57;8.50;99.90
11991;DHT22;6055;52.522;13.446;2022-11-03T08:26:22;8.50;99.90
11991;DHT22;6055;52.522;13.446;2022-11-03T08:28:48;8.60;99.90
11991;DHT22;6055;52.522;13.446;2022-11-03T08:31:13;8.60;99.90
11991;DHT22;6055;52.522;13.446;2022-11-03T08:33:39;8.60;99.90
11991;DHT22;6055;52.522;13.446;2022-11-03T08:36:05;8.60;99.90
11991;DHT22;6055;52.522;13.446;2022-11-03T08:38:30;8.60;99.90
11991;DHT22;6055;52.522;13.446;2022-11-03T08:40:56;8.60;99.90
11991;DHT22;6055;52.522;13.446;2022-11-03T08:43:25;8.60;99.90
11991;DHT22;6055;52.522;13.446;2022-11-03T08:45:50;8.70;99.90
11991;DHT22;6055;52.522;13.446;2022-11-03T08:48:19;8.70;99.90
11991;DHT22;6055;52.522;13.446;2022-11-03T08:50:45;8.80;99.90
11991;DHT22;6055;52.522;13.446;2022-11-03T08:53:13;8.80;99.90
11991;DHT22;6055;52.522;13.446;2022-11-03T08:55:38;8.90;99.90
11991;DHT22;6055;52.522;13.446;2022-11-03T08:58:04;8.90;99.90
11991;DHT22;6055;52.522;13.446;2022-11-03T09:00:29;9.00;99.90
11991;DHT22;6055;52.522;13.446;2022-11-03T09:02:54;9.00;99.90
11991;DHT22;6055;52.522;13.446;2022-11-03T09:05:20;9.10;99.90
11991;DHT22;6055;52.522;13.446;2022-11-03T09:07:46;9.20;99.90
11991;DHT22;6055;52.522;13.446;2022-11-03T09:10:11;9.30;99.90
11991;DHT22;6055;52.522;13.446;2022-11-03T09:12:37;9.30;99.90
11991;DHT22;6055;52.522;13.446;2022-11-03T09:15:04;9.40;99.90
11991;DHT22;6055;52.522;13.446;2022-11-03T09:17:30;9.50;99.90
11991;DHT22;6055;52.522;13.446;2022-11-03T09:19:55;9.60;99.90
11991;DHT22;6055;52.522;13.446;2022-11-03T09:22:21;9.60;99.90
11991;DHT22;6055;52.522;13.446;2022-11-03T09:24:47;9.70;99.90
11991;DHT22;6055;52.522;13.446;2022-11-03T09:27:12;9.80;99.90
11991;DHT22;6055;52.522;13.446;2022-11-03T09:29:38;9.80;99.90
11991;DHT22;6055;52.522;13.446;2022-11-03T09:32:03;10.00;99.90
11991;DHT22;6055;52.522;13.446;2022-11-03T09:34:29;10.00;99.90
11991;DHT22;6055;52.522;13.446;2022-11-03T09:36:55;10.00;99.90
11991;DHT22;6055;52.522;13.446;2022-11-03T09:39:20;10.10;99.90
11991;DHT22;6055;52.522;13.446;2022-11-03T09:41:46;10.10;99.90
11991;DHT22;6055;52.522;13.446;2022-11-03T09:44:11;10.20;99.90
11991;DHT22;6055;52.522;13.446;2022-11-03T09:46:37;10.30;99.90
11991;DHT22;6055;52.522;13.446;2022-11-03T09:49:04;10.30;99.90
11991;DHT22;6055;52.522;13.446;2022-11-03T09:51:31;10.40;99.90
11991;DHT22;6055;52.522;13.446;2022-11-03T09:54:02;10.50;99.90
11991;DHT22;6055;52.522;13.446;2022-11-03T09:56:28;10.60;99.90
11991;DHT22;6055;52.522;13.446;2022-11-03T09:58:54;10.60;99.90
11991;DHT22;6055;52.522;13.446;2022-11-03T10:01:20;10.70;99.90
11991;DHT22;6055;52.522;13.446;2022-11-03T10:03:45;10.80;99.90
11991;DHT22;6055;52.522;13.446;2022-11-03T10:06:11;10.80;99.90
11991;DHT22;6055;52.522;13.446;2022-11-03T10:08:37;10.90;99.90
11991;DHT22;6055;52.522;13.446;2022-11-03T10:11:06;10.90;99.90
11991;DHT22;6055;52.522;13.446;2022-11-03T10:13:41;11.00;99.90
11991;DHT22;6055;52.522;13.446;2022-11-03T10:16:10;11.10;99.90
11991;DHT22;6055;52.522;13.446;2022-11-03T10:18:36;11.20;99.90
11991;DHT22;6055;52.522;13.446;2022-11-03T10:21:15;11.30;99.90
11991;DHT22;6055;52.522;13.446;2022-11-03T10:23:41;11.40;99.90
11991;DHT22;6055;52.522;13.446;2022-11-03T10:26:09;11.50;99.90
11991;DHT22;6055;52.522;13.446;2022-11-03T10:28:35;11.60;99.90
11991;DHT22;6055;52.522;13.446;2022-11-03T10:31:03;11.70;99.90
11991;DHT22;6055;52.522;13.446;2022-11-03T10:33:36;11.70;99.90
11991;DHT22;6055;52.522;13.446;2022-11-03T10:36:22;11.80;99.90
11991;DHT22;6055;52.522;13.446;2022-11-03T10:38:49;11.90;99.90
11991;DHT22;6055;52.522;13.446;2022-11-03T10:41:28;12.00;99.90
11991;DHT22;6055;52.522;13.446;2022-11-03T10:44:01;12.10;99.90
11991;DHT22;6055;52.522;13.446;2022-11-03T10:46:27;12.20;99.90
11991;DHT22;6055;52.522;13.446;2022-11-03T10:49:10;12.20;99.90
11991;DHT22;6055;52.522;13.446;2022-11-03T10:51:37;12.30;99.90
11991;DHT22;6055;52.522;13.446;2022-11-03T10:54:04;12.40;99.90
11991;DHT22;6055;52.522;13.446;2022-11-03T10:56:30;12.50;99.90
11991;DHT22;6055;52.522;13.446;2022-11-03T10:58:58;12.50;99.90
11991;DHT22;6055;52.522;13.446;2022-11-03T11:01:24;12.60;99.90
11991;DHT22;6055;52.522;13.446;2022-11-03T11:03:50;12.60;99.90
11991;DHT22;6055;52.522;13.446;2022-11-03T11:06:29;12.60;99.90
11991;DHT22;6055;52.522;13.446;2022-11-03T11:09:00;12.60;99.90
11991;DHT22;6055;52.522;13.446;2022-11-03T11:11:27;12.60;99.90
11991;DHT22;6055;52.522;13.446;2022-11-03T11:14:22;12.60;99.90
11991;DHT22;6055;52.522;13.446;2022-11-03T11:16:52;12.60;99.90
11991;DHT22;6055;52.522;13.446;2022-11-03T11:19:18;12.60;99.90
11991;DHT22;6055;52.522;13.446;2022-11-03T11:24:12;12.60;99.90
11991;DHT22;6055;52.522;13.446;2022-11-03T11:26:37;12.70;99.90
11991;DHT22;6055;52.522;13.446;2022-11-03T11:31:40;12.60;99.90
11991;DHT22;6055;52.522;13.446;2022-11-03T11:36:36;12.60;99.90
11991;DHT22;6055;52.522;13.446;2022-11-03T11:39:06;12.60;99.90
11991;DHT22;6055;52.522;13.446;2022-11-03T11:47:27;12.50;99.90
11991;DHT22;6055;52.522;13.446;2022-11-03T11:57:54;12.40;99.90
11991;DHT22;6055;52.522;13.446;2022-11-03T12:00:22;12.50;99.90
11991;DHT22;6055;52.522;13.446;2022-11-03T12:02:50;12.50;99.90
11991;DHT22;6055;52.522;13.446;2022-11-03T12:05:19;12.50;99.90
11991;DHT22;6055;52.522;13.446;2022-11-03T12:07:44;12.50;99.90
11991;DHT22;6055;52.522;13.446;2022-11-03T12:10:24;12.60;99.90
11991;DHT22;6055;52.522;13.446;2022-11-03T12:12:54;12.50;99.90
11991;DHT22;6055;52.522;13.446;2022-11-03T12:15:54;12.60;99.90
11991;DHT22;6055;52.522;13.446;2022-11-03T12:18:32;12.50;99.90
11991;DHT22;6055;52.522;13.446;2022-11-03T12:20:59;12.50;99.90
11991;DHT22;6055;52.522;13.446;2022-11-03T12:26:05;12.60;99.90
11991;DHT22;6055;52.522;13.446;2022-11-03T12:28:32;12.60;99.90
11991;DHT22;6055;52.522;13.446;2022-11-03T12:30:58;12.60;99.90
11991;DHT22;6055;52.522;13.446;2022-11-03T12:33:25;12.70;99.90
11991;DHT22;6055;52.522;13.446;2022-11-03T12:35:52;12.70;99.90
11991;DHT22;6055;52.522;13.446;2022-11-03T12:38:17;12.70;99.90
11991;DHT22;6055;52.522;13.446;2022-11-03T12:40:43;12.70;99.90
11991;DHT22;6055;52.522;13.446;2022-11-03T12:43:11;12.70;99.90
11991;DHT22;6055;52.522;13.446;2022-11-03T12:45:36;12.70;99.90
11991;DHT22;6055;52.522;13.446;2022-11-03T12:48:02;12.70;99.90
11991;DHT22;6055;52.522;13.446;2022-11-03T12:50:29;12.70;99.90
11991;DHT22;6055;52.522;13.446;2022-11-03T12:52:54;12.70;99.90
11991;DHT22;6055;52.522;13.446;2022-11-03T12:55:19;12.70;99.90
11991;DHT22;6055;52.522;13.446;2022-11-03T12:57:45;12.80;99.90
11991;DHT22;6055;52.522;13.446;2022-11-03T13:00:11;12.80;99.90
11991;DHT22;6055;52.522;13.446;2022-11-03T13:02:37;12.80;99.90
11991;DHT22;6055;52.522;13.446;2022-11-03T13:05:04;12.80;99.90
11991;DHT22;6055;52.522;13.446;2022-11-03T13:07:30;12.80;99.90
11991;DHT22;6055;52.522;13.446;2022-11-03T13:09:58;12.80;99.90
11991;DHT22;6055;52.522;13.446;2022-11-03T13:12:24;12.80;99.90
11991;DHT22;6055;52.522;13.446;2022-11-03T13:15:00;12.90;99.90
11991;DHT22;6055;52.522;13.446;2022-11-03T13:17:26;12.90;99.90
11991;DHT22;6055;52.522;13.446;2022-11-03T13:19:52;12.90;99.90
11991;DHT22;6055;52.522;13.446;2022-11-03T13:22:17;13.00;99.90
11991;DHT22;6055;52.522;13.446;2022-11-03T13:24:43;13.10;99.90
11991;DHT22;6055;52.522;13.446;2022-11-03T13:27:09;13.20;99.90
11991;DHT22;6055;52.522;13.446;2022-11-03T13:29:34;13.30;99.90
11991;DHT22;6055;52.522;13.446;2022-11-03T13:32:00;13.40;99.90
11991;DHT22;6055;52.522;13.446;2022-11-03T13:34:28;13.60;99.90
11991;DHT22;6055;52.522;13.446;2022-11-03T13:36:53;13.60;99.90
11991;DHT22;6055;52.522;13.446;2022-11-03T13:39:18;13.70;99.90
11991;DHT22;6055;52.522;13.446;2022-11-03T13:41:47;13.80;99.90
11991;DHT22;6055;52.522;13.446;2022-11-03T13:44:12;13.80;99.90
11991;DHT22;6055;52.522;13.446;2022-11-03T13:46:38;13.80;99.90
11991;DHT22;6055;52.522;13.446;2022-11-03T13:49:04;13.90;99.90
11991;DHT22;6055;52.522;13.446;2022-11-03T13:51:30;13.90;99.90
11991;DHT22;6055;52.522;13.446;2022-11-03T13:53:55;14.00;99.90
11991;DHT22;6055;52.522;13.446;2022-11-03T13:56:21;14.10;99.90
11991;DHT22;6055;52.522;13.446;2022-11-03T13:58:46;14.10;99.90
11991;DHT22;6055;52.522;13.446;2022-11-03T14:01:12;14.10;99.90
11991;DHT22;6055;52.522;13.446;2022-11-03T14:03:38;14.10;99.90
11991;DHT22;6055;52.522;13.446;2022-11-03T14:06:04;14.10;99.90
11991;DHT22;6055;52.522;13.446;2022-11-03T14:08:29;14.10;99.90
11991;DHT22;6055;52.522;13.446;2022-11-03T14:10:55;14.00;99.90
11991;DHT22;6055;52.522;13.446;2022-11-03T14:13:20;14.00;99.90
11991;DHT22;6055;52.522;13.446;2022-11-03T14:15:46;13.80;99.90
11991;DHT22;6055;52.522;13.446;2022-11-03T14:18:11;13.70;99.90
11991;DHT22;6055;52.522;13.446;2022-11-03T14:20:37;13.60;99.90
11991;DHT22;6055;52.522;13.446;2022-11-03T14:23:02;13.50;99.90
11991;DHT22;6055;52.522;13.446;2022-11-03T14:25:28;13.40;99.90
11991;DHT22;6055;52.522;13.446;2022-11-03T14:27:53;13.30;99.90
11991;DHT22;6055;52.522;13.446;2022-11-03T14:30:19;13.30;99.90
11991;DHT22;6055;52.522;13.446;2022-11-03T14:32:44;13.30;99.90
11991;DHT22;6055;52.522;13.446;2022-11-03T14:35:10;13.20;99.90
11991;DHT22;6055;52.522;13.446;2022-11-03T14:37:35;13.10;99.90
11991;DHT22;6055;52.522;13.446;2022-11-03T14:40:01;13.00;99.90
11991;DHT22;6055;52.522;13.446;2022-11-03T14:42:27;13.00;99.90
11991;DHT22;6055;52.522;13.446;2022-11-03T14:44:52;12.80;99.90
11991;DHT22;6055;52.522;13.446;2022-11-03T14:47:18;12.70;99.90
11991;DHT22;6055;52.522;13.446;2022-11-03T14:49:47;12.60;99.90
11991;DHT22;6055;52.522;13.446;2022-11-03T14:52:14;12.50;99.90
11991;DHT22;6055;52.522;13.446;2022-11-03T14:54:40;12.40;99.90
11991;DHT22;6055;52.522;13.446;2022-11-03T14:57:05;12.30;99.90
11991;DHT22;6055;52.522;13.446;2022-11-03T14:59:30;12.30;99.90
11991;DHT22;6055;52.522;13.446;2022-11-03T15:01:57;12.20;99.90
11991;DHT22;6055;52.522;13.446;2022-11-03T15:04:23;12.10;99.90
11991;DHT22;6055;52.522;13.446;2022-11-03T15:06:49;12.10;99.90
11991;DHT22;6055;52.522;13.446;2022-11-03T15:09:16;12.00;99.90
11991;DHT22;6055;52.522;13.446;2022-11-03T15:11:42;11.90;99.90
11991;DHT22;6055;52.522;13.446;2022-11-03T15:14:09;11.90;99.90
11991;DHT22;6055;52.522;13.446;2022-11-03T15:16:34;11.80;99.90
11991;DHT22;6055;52.522;13.446;2022-11-03T15:19:01;11.80;99.90
11991;DHT22;6055;52.522;13.446;2022-11-03T15:21:28;11.70;99.90
11991;DHT22;6055;52.522;13.446;2022-11-03T15:23:53;11.70;99.90
11991;DHT22;6055;52.522;13.446;2022-11-03T15:26:19;11.60;99.90
11991;DHT22;6055;52.522;13.446;2022-11-03T15:28:44;11.60;99.90
11991;DHT22;6055;52.522;13.446;2022-11-03T15:31:10;11.50;99.90
11991;DHT22;6055;52.522;13.446;2022-11-03T15:33:35;11.50;99.90
11991;DHT22;6055;52.522;13.446;2022-11-03T15:36:01;11.50;99.90
11991;DHT22;6055;52.522;13.446;2022-11-03T15:38:29;11.40;99.90
11991;DHT22;6055;52.522;13.446;2022-11-03T15:40:54;11.40;99.90
11991;DHT22;6055;52.522;13.446;2022-11-03T15:43:43;11.30;99.90
11991;DHT22;6055;52.522;13.446;2022-11-03T15:46:09;11.20;99.90
11991;DHT22;6055;52.522;13.446;2022-11-03T15:48:35;11.20;99.90
11991;DHT22;6055;52.522;13.446;2022-11-03T15:51:01;11.20;99.90
11991;DHT22;6055;52.522;13.446;2022-11-03T15:53:26;11.10;99.90
11991;DHT22;6055;52.522;13.446;2022-11-03T15:55:52;11.10;99.90
11991;DHT22;6055;52.522;13.446;2022-11-03T15:58:17;11.10;99.90
11991;DHT22;6055;52.522;13.446;2022-11-03T16:00:43;11.10;99.90
11991;DHT22;6055;52.522;13.446;2022-11-03T16:03:08;11.10;99.90
11991;DHT22;6055;52.522;13.446;2022-11-03T16:05:34;11.00;99.90
11991;DHT22;6055;52.522;13.446;2022-11-03T16:07:59;11.00;99.90
11991;DHT22;6055;52.522;13.446;2022-11-03T16:10:25;11.00;99.90
11991;DHT22;6055;52.522;13.446;2022-11-03T16:12:51;11.00;99.90
11991;DHT22;6055;52.522;13.446;2022-11-03T16:15:16;11.00;99.90
11991;DHT22;6055;52.522;13.446;2022-11-03T16:17:41;11.10;99.90
11991;DHT22;6055;52.522;13.446;2022-11-03T16:20:08;11.10;99.90
11991;DHT22;6055;52.522;13.446;2022-11-03T16:22:35;11.20;99.90
11991;DHT22;6055;52.522;13.446;2022-11-03T16:25:01;11.20;99.90
11991;DHT22;6055;52.522;13.446;2022-11-03T16:27:27;11.20;99.90
11991;DHT22;6055;52.522;13.446;2022-11-03T16:29:52;11.20;99.90
11991;DHT22;6055;52.522;13.446;2022-11-03T16:32:23;11.20;99.90
11991;DHT22;6055;52.522;13.446;2022-11-03T16:34:48;11.10;99.90
11991;DHT22;6055;52.522;13.446;2022-11-03T16:37:15;11.10;99.90
11991;DHT22;6055;52.522;13.446;2022-11-03T16:39:41;11.00;99.90
11991;DHT22;6055;52.522;13.446;2022-11-03T16:42:06;11.00;99.90